Aérodrome :
LOGIN :

S'inscrire | Disclaimer

   EN    FR    IT 

 










Légende :    VFR   VFR Marginal   IFR   IFR Intensif   IFR Très Intensif
Visi : 
Plafond : 
>= 8 km
>= 3000ft
5 à 8 km
1000 à 3000 ft
1500m à 5 km
500 à 1000 ft
800 à 1500m
200 à 500 ft
< 800m
< 200 ft
Symboles :   Orages  Brouillard  Fortes neiges  Fortes précipitations  Vent > 20 kt
SIGMETs :   Divers  Orages  Givrage  Turbulence  Onde Orograph.  Cendres Volcan.







- Altitude de l'aérodrome : 433 ft
- Code IATA : CCF
- Voir les cartes d'approche


LFMK - Carcassonne

DERNIER METAR :
  • 211000Z AUTO 28010KT 250V310 9999 OVC018 21/16 Q1020 TEMPO 30015G25KT

METARs EXPIRÉS :
  • 210930Z AUTO 28014KT 9999 OVC017 21/16 Q1020 TEMPO 30015G25KT
  • 210900Z AUTO 28013KT 230V300 9999 OVC016 21/16 Q1020 TEMPO 30015G25KT
  • 210830Z AUTO 28013KT 250V310 9999 OVC016 20/16 Q1020 TEMPO 30015G25KT
  • 210800Z AUTO 27012KT 240V300 9999 BKN016 21/16 Q1019 NOSIG
  • 210730Z AUTO 26010KT 230V290 9999 BKN017 20/16 Q1019 NOSIG

TAF TAF LFMK
Valide du 21 à 09h jusqu'au 22 à 09h UTC


210800Z 2109/2209 25013KT 9999 OVC020
BECMG 2109/2111 CAVOK
TEMPO 2109/2118 30015G25KT
Pas de NOTAMs connus pour ce terrain.



MET'MAP, la Météo Aéronautique d'un coup d'oeil ! - Copyright ORBIFLY Décembre 2007 - Disclaimer

ORBIFLY MET'MAP TEAM :

Programmation & Développement : Alexandra Zaïnal
Conception & Développement : Baudouin d'Aumeries
Co-Programmation & Développement : Marc-Olivier Méhu
Soutien technique & logistique : Manuel Goepfert

Contact : metmap@orbifly.com




SOURCES & CREDITS :

   NOAA